Time;durP1;ratioP1;P1;durP2;ratioP2;P2;SDS_P1;SDS_P2;PMS_P1;PMS_P2;Temp;Humidity;BMP_temperature;BMP_pressure;BME280_temperature;BME280_humidity;BME280_pressure;Samples;Min_cycle;Max_cycle;Signal;HPM_P1;HPM_P2
2023/04/06 00:02:08;;;;;;;12.03;10.83;;;;;;;-3.39;100.00;97257.63;4970372;28;20729;-67
2023/04/06 00:04:36;;;;;;;9.53;8.83;;;;;;;-3.41;100.00;97259.47;4950272;28;20731;-66
2023/04/06 00:07:04;;;;;;;9.97;8.53;;;;;;;-3.40;100.00;97262.00;4971809;28;20240;-67
2023/04/06 00:09:32;;;;;;;11.17;10.17;;;;;;;-3.45;100.00;97271.78;4971751;28;20306;-67
2023/04/06 00:12:00;;;;;;;9.93;8.97;;;;;;;-3.54;100.00;97265.44;4920263;28;20249;-68
2023/04/06 00:14:29;;;;;;;11.03;9.90;;;;;;;-3.51;100.00;97261.78;4971308;28;20508;-67
2023/04/06 00:16:56;;;;;;;11.37;10.07;;;;;;;-3.55;100.00;97271.53;4973571;28;20246;-67
2023/04/06 00:19:24;;;;;;;10.23;9.13;;;;;;;-148.82;100.00;60434.72;4948179;28;20458;-68
2023/04/06 00:21:51;;;;;;;8.93;8.20;;;;;;;-148.82;100.00;60434.72;4970250;28;20227;-67
2023/04/06 00:24:19;;;;;;;8.53;7.73;;;;;;;-148.82;100.00;60434.72;4963069;28;20240;-67
2023/04/06 00:26:47;;;;;;;8.70;7.83;;;;;;;-148.82;100.00;60434.72;4923324;28;20830;-68
2023/04/06 00:29:15;;;;;;;9.37;7.27;;;;;;;-148.82;100.00;60434.72;4970678;28;20369;-70
2023/04/06 00:31:44;;;;;;;7.90;7.13;;;;;;;-148.82;100.00;60434.72;4971773;28;20233;-67
2023/04/06 00:34:12;;;;;;;7.97;7.37;;;;;;;-148.82;100.00;60434.72;4965319;28;20201;-67
2023/04/06 00:36:40;;;;;;;8.27;7.57;;;;;;;-3.99;100.00;97260.31;4961419;28;20478;-66
2023/04/06 00:39:08;;;;;;;8.07;7.47;;;;;;;-3.96;100.00;97252.38;4976339;28;20213;-68
2023/04/06 00:41:36;;;;;;;8.37;7.77;;;;;;;-3.99;100.00;97254.28;4974271;28;20517;-66
2023/04/06 00:44:03;;;;;;;8.57;7.80;;;;;;;-3.98;100.00;97254.22;4921109;28;20212;-68
2023/04/06 00:46:31;;;;;;;7.93;7.23;;;;;;;-3.97;100.00;97263.66;4970308;28;20974;-68
2023/04/06 00:49:00;;;;;;;7.67;7.03;;;;;;;-3.95;100.00;97255.81;4973298;28;20315;-67
2023/04/06 00:51:28;;;;;;;7.93;7.33;;;;;;;-3.96;100.00;97259.31;4949986;28;20399;-67
2023/04/06 00:53:55;;;;;;;8.20;6.87;;;;;;;-4.00;100.00;97256.06;4974156;28;20205;-66
2023/04/06 00:56:25;;;;;;;8.20;7.50;;;;;;;-4.03;100.00;97264.00;4969335;28;20247;-67
2023/04/06 00:58:53;;;;;;;8.73;7.93;;;;;;;-4.02;100.00;97257.91;4917032;28;20275;-67
2023/04/06 01:01:21;;;;;;;7.93;7.23;;;;;;;-4.02;100.00;97255.31;4974142;28;20323;-68
2023/04/06 01:03:50;;;;;;;8.70;7.83;;;;;;;-4.04;100.00;97248.56;4971003;28;20205;-67
2023/04/06 01:06:19;;;;;;;7.73;7.00;;;;;;;-4.05;100.00;97252.94;4949085;28;20201;-68
2023/04/06 01:08:47;;;;;;;9.23;8.20;;;;;;;-4.12;100.00;97249.84;4946011;28;20693;-68
2023/04/06 01:11:14;;;;;;;8.17;7.47;;;;;;;-4.14;100.00;97249.13;4971866;28;20256;-67
2023/04/06 01:13:42;;;;;;;9.20;8.40;;;;;;;-4.17;100.00;97257.06;4968779;28;20201;-67
2023/04/06 01:16:09;;;;;;;7.53;6.93;;;;;;;-4.28;100.00;97249.09;4919301;28;20582;-67
2023/04/06 01:18:39;;;;;;;8.93;8.03;;;;;;;-4.22;100.00;97246.16;4977048;28;20224;-68
2023/04/06 01:21:08;;;;;;;7.97;7.23;;;;;;;-4.22;100.00;97246.97;4972398;28;20542;-67
2023/04/06 01:23:37;;;;;;;8.23;7.53;;;;;;;-4.25;100.00;97235.97;4952585;28;20224;-67
2023/04/06 01:26:05;;;;;;;8.63;7.83;;;;;;;-4.27;100.00;97250.78;4973135;28;20208;-67
2023/04/06 01:28:32;;;;;;;8.80;8.13;;;;;;;-4.23;100.00;97247.88;4975317;28;20598;-67
2023/04/06 01:31:00;;;;;;;10.37;9.37;;;;;;;-4.25;100.00;97238.56;4919849;28;20590;-68
2023/04/06 01:33:28;;;;;;;9.97;9.00;;;;;;;-4.28;100.00;97241.34;4972933;28;20236;-67
2023/04/06 01:35:55;;;;;;;10.10;9.17;;;;;;;-4.28;100.00;97246.50;4970795;28;20621;-68
2023/04/06 01:38:23;;;;;;;11.20;9.37;;;;;;;-4.20;100.00;97246.91;4948301;28;20647;-67
2023/04/06 01:40:52;;;;;;;9.90;9.10;;;;;;;-4.17;100.00;97245.88;4974097;28;20596;-67
2023/04/06 01:43:20;;;;;;;12.07;10.87;;;;;;;-4.22;100.00;97228.84;4969794;28;20240;-67
2023/04/06 01:45:48;;;;;;;12.67;11.23;;;;;;;-4.08;100.00;97243.56;4920672;28;20219;-67
2023/04/06 01:48:16;;;;;;;13.53;11.73;;;;;;;-4.03;100.00;97242.47;4974583;28;20209;-68
2023/04/06 01:50:43;;;;;;;14.10;11.20;;;;;;;-3.95;100.00;97245.44;4972750;28;20225;-68
2023/04/06 01:53:11;;;;;;;13.87;11.67;;;;;;;-3.91;100.00;97241.75;4946186;28;20426;-67
2023/04/06 01:55:39;;;;;;;12.00;10.23;;;;;;;-3.81;100.00;97248.03;4976013;28;20680;-67
2023/04/06 01:58:08;;;;;;;11.80;9.70;;;;;;;-3.70;100.00;97246.53;4968055;28;20393;-68
2023/04/06 02:00:35;;;;;;;10.67;9.57;;;;;;;-3.63;100.00;97247.81;4926105;28;20232;-68
2023/04/06 02:03:03;;;;;;;11.43;10.13;;;;;;;-3.59;100.00;97241.56;4973358;28;20637;-68
2023/04/06 02:05:37;;;;;;;11.00;9.70;;;;;;;-3.49;100.00;97234.03;4973305;28;20216;-67
2023/04/06 02:08:05;;;;;;;10.57;9.37;;;;;;;-3.43;100.00;97240.59;4940986;28;20220;-68
2023/04/06 02:10:33;;;;;;;10.50;9.47;;;;;;;-3.35;100.00;97240.97;4973210;28;20243;-67
2023/04/06 02:13:01;;;;;;;11.07;10.07;;;;;;;-3.31;100.00;97232.06;4969463;28;20748;-68
2023/04/06 02:15:30;;;;;;;12.27;11.00;;;;;;;-3.26;100.00;97235.19;4968400;28;20221;-67
2023/04/06 02:17:58;;;;;;;12.87;11.50;;;;;;;-3.23;100.00;97236.78;4915799;28;20313;-68
2023/04/06 02:20:26;;;;;;;10.10;9.10;;;;;;;-3.16;100.00;97229.44;4974191;28;20621;-66
2023/04/06 02:22:54;;;;;;;10.40;9.40;;;;;;;-3.26;100.00;97217.06;4959039;28;20293;-68
2023/04/06 02:25:22;;;;;;;9.33;8.43;;;;;;;-3.17;100.00;97223.41;4964567;28;20269;-67
2023/04/06 02:27:49;;;;;;;9.40;8.60;;;;;;;-3.07;100.00;97231.47;4971655;28;21126;-68
2023/04/06 02:30:17;;;;;;;9.40;8.33;;;;;;;-3.02;100.00;97231.19;4974640;28;20311;-67
2023/04/06 02:32:46;;;;;;;10.53;8.13;;;;;;;-3.02;100.00;97228.59;4914283;28;20571;-67
2023/04/06 02:35:14;;;;;;;8.63;7.83;;;;;;;-3.09;100.00;97236.72;4971537;28;20435;-68
2023/04/06 02:37:42;;;;;;;8.87;8.10;;;;;;;-3.05;100.00;97230.41;4973853;28;20239;-68
2023/04/06 02:40:11;;;;;;;8.60;7.40;;;;;;;-3.02;100.00;97228.59;4949918;28;20219;-67
2023/04/06 02:42:38;;;;;;;8.10;7.33;;;;;;;-3.03;100.00;97232.91;4970802;28;21091;-68
2023/04/06 02:45:07;;;;;;;7.53;6.93;;;;;;;-3.01;100.00;97222.47;4973440;28;20964;-67
2023/04/06 02:47:35;;;;;;;8.43;7.73;;;;;;;-3.11;100.00;97207.47;4917901;28;20733;-68
2023/04/06 02:50:04;;;;;;;8.43;7.73;;;;;;;-3.05;100.00;97224.41;4974181;28;20643;-67
2023/04/06 02:52:32;;;;;;;9.30;8.60;;;;;;;-3.06;100.00;97222.75;4971384;28;20215;-65
2023/04/06 02:55:00;;;;;;;10.03;8.30;;;;;;;-3.11;100.00;97223.03;4950357;28;20295;-67
2023/04/06 02:57:28;;;;;;;10.00;7.80;;;;;;;-3.15;100.00;97218.97;4972578;28;20248;-70
2023/04/06 02:59:55;;;;;;;9.33;8.43;;;;;;;-3.23;100.00;97222.03;4973240;28;20220;-69
2023/04/06 03:02:24;;;;;;;8.00;7.30;;;;;;;-3.41;100.00;97208.50;4948459;28;20207;-67
2023/04/06 03:04:52;;;;;;;8.40;7.60;;;;;;;-3.36;100.00;97222.00;4956166;28;20308;-66
2023/04/06 03:07:21;;;;;;;7.70;7.20;;;;;;;-3.42;100.00;97224.13;4970275;28;20216;-68
2023/04/06 03:09:48;;;;;;;7.57;6.97;;;;;;;-3.56;100.00;97209.44;4969497;28;20932;-67
2023/04/06 03:12:16;;;;;;;7.53;6.90;;;;;;;-3.49;100.00;97223.66;4947561;28;20229;-67
2023/04/06 03:14:44;;;;;;;7.63;7.03;;;;;;;-148.82;100.00;60434.72;4969399;28;20532;-67
2023/04/06 03:17:11;;;;;;;7.77;7.13;;;;;;;-3.49;100.00;97226.25;4967747;28;20675;-67
2023/04/06 03:19:39;;;;;;;7.47;6.97;;;;;;;-3.44;100.00;97229.41;4920591;28;20432;-68
2023/04/06 03:22:07;;;;;;;7.77;6.87;;;;;;;-148.82;100.00;60434.72;4969085;28;20259;-67
2023/04/06 03:24:36;;;;;;;7.63;7.03;;;;;;;-3.48;100.00;97233.09;4968089;28;20212;-67
2023/04/06 03:27:03;;;;;;;8.00;6.80;;;;;;;-3.51;100.00;97228.97;4950486;28;20248;-67
2023/04/06 03:29:31;;;;;;;6.90;6.27;;;;;;;-3.56;100.00;97231.00;4971168;28;20209;-70
2023/04/06 03:31:58;;;;;;;7.37;6.67;;;;;;;-3.62;100.00;97226.19;4969585;28;20465;-69
2023/04/06 03:34:29;;;;;;;7.93;7.33;;;;;;;-3.76;100.00;97219.28;4935390;28;20208;-70
2023/04/06 03:36:57;;;;;;;7.60;6.87;;;;;;;-3.81;100.00;97227.31;4967849;28;20298;-70
2023/04/06 03:39:37;;;;;;;7.40;6.80;;;;;;;-3.77;100.00;97238.34;4971282;28;20776;-69
2023/04/06 03:42:05;;;;;;;8.07;7.30;;;;;;;-3.84;100.00;97237.88;4972067;28;20259;-69
2023/04/06 03:44:33;;;;;;;8.00;7.30;;;;;;;-3.91;100.00;97239.16;4947198;28;20720;-69
2023/04/06 03:47:00;;;;;;;8.10;7.20;;;;;;;-3.97;100.00;97247.31;4973362;28;20607;-69
2023/04/06 03:49:28;;;;;;;7.70;7.10;;;;;;;-4.00;100.00;97244.88;4933952;28;20273;-67
2023/04/06 03:51:57;;;;;;;8.23;7.63;;;;;;;-4.01;100.00;97243.19;4968642;28;20260;-68
2023/04/06 03:54:25;;;;;;;8.23;7.63;;;;;;;-4.04;100.00;97254.59;4973422;28;20212;-69
2023/04/06 03:56:53;;;;;;;9.17;8.17;;;;;;;-4.07;100.00;97252.19;4975436;28;20201;-68
2023/04/06 03:59:21;;;;;;;8.60;7.90;;;;;;;-4.09;100.00;97257.44;4951026;28;20304;-69
2023/04/06 04:01:49;;;;;;;8.57;7.87;;;;;;;-4.09;100.00;97259.22;4971077;28;20963;-69
2023/04/06 04:04:17;;;;;;;8.23;7.63;;;;;;;-4.08;100.00;97266.03;4971877;28;20232;-69
2023/04/06 04:06:44;;;;;;;10.53;8.20;;;;;;;-4.04;100.00;97266.69;4918396;28;20220;-68
2023/04/06 04:09:12;;;;;;;9.70;8.90;;;;;;;-4.01;100.00;97271.69;4973206;28;20205;-68
2023/04/06 04:11:39;;;;;;;11.67;10.57;;;;;;;-4.00;100.00;97273.34;4974392;28;20807;-69
2023/04/06 04:14:09;;;;;;;12.77;11.60;;;;;;;-4.02;100.00;97272.59;4942942;28;20612;-70
2023/04/06 04:16:36;;;;;;;10.90;9.90;;;;;;;-4.01;100.00;97269.94;4974791;28;20312;-68
2023/04/06 04:19:04;;;;;;;10.43;9.43;;;;;;;-4.02;100.00;97268.28;4967536;28;20311;-69
2023/04/06 04:21:32;;;;;;;10.97;9.90;;;;;;;-4.05;100.00;97272.78;4921733;28;21034;-69
2023/04/06 04:24:00;;;;;;;11.60;10.53;;;;;;;-4.08;100.00;97279.00;4972520;28;20828;-69
2023/04/06 04:26:27;;;;;;;16.80;15.07;;;;;;;-4.09;100.00;97277.31;4971432;28;20228;-67
2023/04/06 04:28:56;;;;;;;16.10;14.60;;;;;;;-4.10;100.00;97278.25;4964392;28;20213;-68
2023/04/06 04:31:25;;;;;;;13.33;12.10;;;;;;;-4.23;100.00;97266.00;4962102;28;20874;-67
2023/04/06 04:33:53;;;;;;;11.80;10.77;;;;;;;-4.21;100.00;97271.09;4962761;28;20639;-68
2023/04/06 04:36:23;;;;;;;12.67;11.00;;;;;;;-4.16;100.00;97281.19;4962025;28;20818;-68
2023/04/06 04:38:50;;;;;;;10.97;9.77;;;;;;;-4.21;100.00;97265.94;4920864;28;20691;-70
2023/04/06 04:41:18;;;;;;;11.73;10.57;;;;;;;-4.09;100.00;97283.31;4950312;28;20458;-67
2023/04/06 04:43:46;;;;;;;11.47;10.47;;;;;;;-4.10;100.00;97284.25;4973407;28;20210;-68
2023/04/06 04:46:13;;;;;;;11.00;9.90;;;;;;;-4.03;100.00;97281.28;4943017;28;20284;-69
2023/04/06 04:48:42;;;;;;;10.73;9.73;;;;;;;-4.05;100.00;97286.56;4975404;28;20198;-69
2023/04/06 04:51:10;;;;;;;11.13;10.03;;;;;;;-4.01;100.00;97276.84;4971743;28;20232;-70
2023/04/06 04:53:38;;;;;;;12.60;10.27;;;;;;;-4.00;100.00;97288.88;4935456;28;20209;-69
2023/04/06 04:56:05;;;;;;;10.30;9.50;;;;;;;-4.01;100.00;97282.88;4948809;28;20332;-68
2023/04/06 04:58:33;;;;;;;10.87;9.83;;;;;;;-4.00;100.00;97279.38;4976029;28;20240;-69
2023/04/06 05:01:01;;;;;;;10.80;9.87;;;;;;;-4.14;100.00;97272.41;4953415;28;20232;-70
2023/04/06 05:03:29;;;;;;;11.80;10.50;;;;;;;-4.12;100.00;97275.75;4978932;28;20213;-69
2023/04/06 05:06:23;;;;;;;10.77;9.87;;;;;;;-4.08;100.00;97284.16;4973618;28;20208;-67
2023/04/06 05:09:14;;;;;;;10.37;9.07;;;;;;;-4.11;100.00;97281.75;4932523;28;22383;-69
2023/04/06 05:12:06;;;;;;;9.17;8.07;;;;;;;-4.05;100.00;97275.38;4948347;28;20969;-69
2023/04/06 05:14:58;;;;;;;9.30;8.43;;;;;;;-4.17;100.00;97282.94;4971962;28;20240;-69
2023/04/06 05:17:50;;;;;;;9.33;8.53;;;;;;;-4.10;100.00;97286.81;4948405;28;20248;-70
2023/04/06 05:20:43;;;;;;;16.17;8.67;;;;;;;-4.04;100.00;97288.22;4976398;28;20759;-69
2023/04/06 05:23:36;;;;;;;9.50;8.60;;;;;;;-3.99;100.00;97290.53;4921681;28;20228;-68
2023/04/06 05:26:28;;;;;;;10.50;8.93;;;;;;;-3.90;100.00;97290.00;4977781;28;20608;-68
2023/04/06 05:29:21;;;;;;;8.37;7.67;;;;;;;-3.95;100.00;97282.50;4973973;28;20500;-67
2023/04/06 05:32:12;;;;;;;9.27;8.37;;;;;;;-3.98;100.00;97285.28;4947897;28;21023;-68
2023/04/06 05:35:04;;;;;;;11.53;10.07;;;;;;;-3.85;100.00;97279.38;4970840;28;20389;-67
2023/04/06 05:37:56;;;;;;;9.33;8.33;;;;;;;-3.79;100.00;97291.94;4970141;28;20684;-68
2023/04/06 05:40:49;;;;;;;9.27;8.40;;;;;;;-3.65;100.00;97293.72;4922648;28;20566;-69
2023/04/06 05:43:41;;;;;;;9.23;8.10;;;;;;;-3.67;100.00;97293.81;4977125;28;20576;-69
2023/04/06 05:46:33;;;;;;;10.30;9.37;;;;;;;-3.60;100.00;97296.84;4977118;28;20326;-67
2023/04/06 05:49:25;;;;;;;9.47;8.63;;;;;;;-3.57;100.00;97298.44;4950121;28;20212;-68
2023/04/06 05:52:17;;;;;;;10.87;9.30;;;;;;;-3.24;100.00;97287.75;4970158;28;21184;-67
2023/04/06 05:55:10;;;;;;;10.33;9.50;;;;;;;-2.91;100.00;97299.53;4920162;28;20859;-67
2023/04/06 05:58:03;;;;;;;10.50;9.67;;;;;;;-2.65;100.00;97293.66;4970983;28;20565;-68
2023/04/06 06:00:58;;;;;;;9.97;9.17;;;;;;;-2.48;100.00;97295.13;4959012;28;20225;-68
2023/04/06 06:03:49;;;;;;;10.27;9.27;;;;;;;-2.36;100.00;97286.56;4949362;28;20305;-68
2023/04/06 06:06:41;;;;;;;11.10;10.00;;;;;;;-2.20;100.00;97289.00;4972900;28;20428;-67
2023/04/06 06:09:33;;;;;;;16.43;13.07;;;;;;;-2.02;100.00;97283.50;4973430;28;20267;-68
2023/04/06 06:12:25;;;;;;;11.60;10.50;;;;;;;-1.89;100.00;97286.09;4960313;28;20719;-68
2023/04/06 06:15:18;;;;;;;9.80;8.80;;;;;;;-1.73;100.00;97278.13;4974040;28;20422;-68
2023/04/06 06:18:10;;;;;;;9.43;8.63;;;;;;;-1.60;100.00;97281.53;4970310;28;20220;-68
2023/04/06 06:21:02;;;;;;;10.40;9.43;;;;;;;-1.50;100.00;97283.50;4946804;28;20503;-69
2023/04/06 06:23:54;;;;;;;9.40;8.57;;;;;;;-1.38;100.00;97271.41;4968680;28;20282;-68
2023/04/06 06:26:48;;;;;;;9.73;8.73;;;;;;;-1.21;100.00;97278.03;4922226;28;20795;-68
2023/04/06 06:29:40;;;;;;;9.60;8.73;;;;;;;-1.12;100.00;97281.78;4970862;28;20714;-67
2023/04/06 06:32:33;;;;;;;9.93;8.83;;;;;;;-0.90;100.00;97281.91;4975051;28;20411;-67
2023/04/06 06:35:25;;;;;;;9.87;8.00;;;;;;;-0.81;100.00;97277.00;4949370;28;20409;-68
2023/04/06 06:38:17;;;;;;;15.13;8.77;;;;;;;-0.49;100.00;97290.25;4966399;28;20252;-67
2023/04/06 06:41:09;;;;;;;15.00;8.83;;;;;;;-0.22;100.00;97289.19;4968758;28;20224;-67
2023/04/06 06:44:01;;;;;;;17.57;13.10;;;;;;;-0.08;100.00;97269.94;4921849;28;20224;-68
2023/04/06 06:46:53;;;;;;;8.00;7.30;;;;;;;0.24;100.00;97295.34;4972626;28;20231;-67
2023/04/06 06:49:46;;;;;;;8.50;7.73;;;;;;;0.46;100.00;97288.47;4971380;28;20644;-68
2023/04/06 06:52:38;;;;;;;7.57;6.60;;;;;;;0.62;100.00;97289.94;4974660;28;20833;-66
2023/04/06 06:55:30;;;;;;;7.63;7.13;;;;;;;0.74;100.00;97288.97;4972424;28;20216;-67
2023/04/06 06:58:22;;;;;;;8.97;7.00;;;;;;;0.90;100.00;97288.59;4911831;28;21133;-67
2023/04/06 07:01:14;;;;;;;7.03;6.43;;;;;;;1.06;100.00;97290.00;4969526;28;20255;-66
2023/04/06 07:04:07;;;;;;;6.87;6.30;;;;;;;1.35;100.00;97295.53;4963370;28;20812;-66
2023/04/06 07:07:01;;;;;;;7.30;6.60;;;;;;;1.55;100.00;97295.69;4941434;28;20228;-68
2023/04/06 07:09:53;;;;;;;6.63;6.03;;;;;;;1.80;98.33;97304.94;4969033;28;20342;-68
2023/04/06 07:12:48;;;;;;;6.20;5.70;;;;;;;1.83;94.63;97302.09;4971525;28;20427;-67
2023/04/06 07:15:40;;;;;;;7.37;6.63;;;;;;;2.01;92.57;97299.75;4973009;28;20259;-67
2023/04/06 07:18:32;;;;;;;6.40;6.00;;;;;;;2.10;92.27;97295.53;4971207;28;20223;-67
2023/04/06 07:21:24;;;;;;;6.73;6.10;;;;;;;2.19;93.32;97299.19;4948240;28;20279;-67
2023/04/06 07:24:17;;;;;;;6.40;6.00;;;;;;;2.34;91.99;97288.38;4972690;28;20356;-67
2023/04/06 07:27:09;;;;;;;8.13;7.43;;;;;;;2.42;92.00;97299.03;4974902;28;20878;-67
2023/04/06 07:30:01;;;;;;;7.80;7.10;;;;;;;2.56;91.93;97297.84;4924531;28;20240;-67
2023/04/06 07:32:55;;;;;;;6.33;5.80;;;;;;;2.60;93.17;97297.47;4968525;28;20312;-68
2023/04/06 07:35:47;;;;;;;7.07;6.37;;;;;;;2.75;91.98;97300.56;4968310;28;20236;-68
2023/04/06 07:38:39;;;;;;;8.73;7.53;;;;;;;2.97;89.95;97301.31;4978013;28;20747;-67
2023/04/06 07:41:32;;;;;;;6.20;5.80;;;;;;;3.03;85.60;97289.50;4973948;28;20344;-67
2023/04/06 07:44:24;;;;;;;6.33;5.73;;;;;;;3.27;84.45;97302.22;4921620;28;22369;-66
2023/04/06 07:47:16;;;;;;;7.47;6.63;;;;;;;3.37;82.38;97301.41;4968761;28;20270;-67
2023/04/06 07:50:09;;;;;;;9.53;6.57;;;;;;;3.51;83.08;97298.41;4970736;28;20501;-66
2023/04/06 07:53:01;;;;;;;7.57;6.67;;;;;;;3.76;80.97;97296.19;4949811;28;20278;-67
2023/04/06 07:55:53;;;;;;;6.00;5.53;;;;;;;3.90;79.70;97295.81;4974303;28;20239;-67
2023/04/06 07:58:46;;;;;;;7.07;5.77;;;;;;;4.19;78.27;97296.72;4976615;28;20562;-67
